Time;durP1;ratioP1;P1;durP2;ratioP2;P2;SDS_P1;SDS_P2;PMS_P1;PMS_P2;Temp;Humidity;BMP_temperature;BMP_pressure;BME280_temperature;BME280_humidity;BME280_pressure;Samples;Min_cycle;Max_cycle;Signal;HPM_P1;HPM_P2
2022/04/04 00:01:33;;;;;;;7.07;4.27;;;-2.20;99.90;;;;;;5060790;28;20248;-79
2022/04/04 00:03:59;;;;;;;6.00;4.27;;;;;;;;;;5061041;28;20184;-79
2022/04/04 00:06:29;;;;;;;5.70;3.73;;;;;;;;;;5061389;28;20180;-79
2022/04/04 00:08:56;;;;;;;15.40;5.10;;;;;;;;;;5060557;28;20444;-79
2022/04/04 00:11:22;;;;;;;5.77;4.20;;;;;;;;;;5063785;28;20507;-78
2022/04/04 00:13:48;;;;;;;6.10;4.13;;;;;;;;;;5076237;28;20487;-78
2022/04/04 00:16:13;;;;;;;7.53;4.77;;;-2.50;99.90;;;;;;5076472;28;20935;-78
2022/04/04 00:18:39;;;;;;;6.33;4.20;;;-2.40;99.90;;;;;;5071534;28;20214;-79
2022/04/04 00:21:05;;;;;;;6.97;4.67;;;-2.50;99.90;;;;;;5061114;28;20176;-79
2022/04/04 00:23:31;;;;;;;7.90;5.20;;;-2.50;99.90;;;;;;5062091;28;20662;-79
2022/04/04 00:25:56;;;;;;;12.63;7.90;;;-2.40;99.90;;;;;;5060231;28;20543;-79
2022/04/04 00:28:22;;;;;;;27.53;14.83;;;-2.50;99.90;;;;;;5061201;28;20436;-79
2022/04/04 00:30:48;;;;;;;12.50;7.37;;;-2.50;99.90;;;;;;5060388;28;20560;-79
2022/04/04 00:33:13;;;;;;;24.70;12.70;;;-2.70;99.90;;;;;;5061419;28;20643;-79
2022/04/04 00:35:39;;;;;;;15.20;9.00;;;-2.70;99.90;;;;;;5061987;28;20183;-79
2022/04/04 00:38:08;;;;;;;7.20;5.80;;;-2.70;99.90;;;;;;5061236;28;20217;-79
2022/04/04 00:40:34;;;;;;;7.47;4.97;;;-2.80;99.90;;;;;;5062758;28;20177;-79
2022/04/04 00:43:00;;;;;;;17.03;10.30;;;-2.90;99.90;;;;;;5061795;28;20437;-79
2022/04/04 00:45:25;;;;;;;11.03;7.87;;;-2.90;99.90;;;;;;5061158;28;20483;-80
2022/04/04 00:47:51;;;;;;;8.13;5.93;;;-3.00;99.90;;;;;;5061188;28;20213;-79
2022/04/04 00:50:17;;;;;;;12.50;9.17;;;-3.00;99.90;;;;;;5063320;28;20210;-80
2022/04/04 00:52:42;;;;;;;9.67;5.70;;;-3.10;99.90;;;;;;5063333;28;20173;-80
2022/04/04 00:55:10;;;;;;;8.00;5.17;;;-3.10;99.90;;;;;;5061922;28;20177;-80
2022/04/04 00:57:39;;;;;;;5.60;4.13;;;-3.00;99.90;;;;;;5063511;28;20292;-79
2022/04/04 01:00:09;;;;;;;9.53;4.40;;;-3.00;99.90;;;;;;5061451;28;20515;-80
2022/04/04 01:02:37;;;;;;;6.37;4.57;;;-3.10;99.90;;;;;;5062921;28;20752;-80
2022/04/04 01:05:04;;;;;;;6.00;4.70;;;-3.20;99.90;;;;;;5061700;28;20415;-80
2022/04/04 01:07:30;;;;;;;9.10;4.67;;;-3.40;99.90;;;;;;5062563;28;20436;-80
2022/04/04 01:09:56;;;;;;;7.40;4.97;;;-3.40;99.90;;;;;;5062157;28;20429;-80
2022/04/04 01:12:22;;;;;;;6.00;4.60;;;-3.40;99.90;;;;;;5064449;28;20428;-80
2022/04/04 01:14:48;;;;;;;7.27;4.93;;;-3.40;99.90;;;;;;5068619;28;20192;-80
2022/04/04 01:17:16;;;;;;;7.83;5.10;;;-3.40;99.90;;;;;;5069051;28;20203;-80
2022/04/04 01:19:42;;;;;;;7.27;5.00;;;-3.40;99.90;;;;;;5062740;28;20442;-80
2022/04/04 01:22:10;;;;;;;7.20;4.53;;;-3.50;99.90;;;;;;5061075;28;20455;-80
2022/04/04 01:24:38;;;;;;;6.53;4.27;;;-3.50;99.90;;;;;;5060654;28;20209;-80
2022/04/04 01:27:04;;;;;;;6.23;4.33;;;-3.40;99.90;;;;;;5060646;28;20417;-80
2022/04/04 01:29:30;;;;;;;6.80;4.50;;;-3.40;99.90;;;;;;5060316;28;20962;-80
2022/04/04 01:31:57;;;;;;;5.63;4.03;;;-2.80;99.90;;;;;;5060200;28;20434;-80
2022/04/04 01:34:23;;;;;;;9.27;4.67;;;-3.50;99.90;;;;;;5060456;28;20181;-80
2022/04/04 01:36:49;;;;;;;6.43;4.50;;;-3.50;99.90;;;;;;5061448;28;20852;-80
2022/04/04 01:39:15;;;;;;;6.60;4.83;;;-3.50;99.90;;;;;;5062648;28;20428;-80
2022/04/04 01:41:42;;;;;;;9.17;4.73;;;-3.50;99.90;;;;;;5061334;28;20409;-80
2022/04/04 01:44:07;;;;;;;6.30;4.43;;;-3.60;99.90;;;;;;5061528;28;20178;-81
2022/04/04 01:46:33;;;;;;;6.53;4.90;;;-3.60;99.90;;;;;;5061050;28;20421;-80
2022/04/04 01:49:01;;;;;;;5.80;4.07;;;-3.70;99.90;;;;;;5062194;28;20201;-80
2022/04/04 01:51:28;;;;;;;7.13;4.27;;;-3.70;99.90;;;;;;5062271;28;20205;-80
2022/04/04 01:53:55;;;;;;;5.90;4.40;;;-3.70;99.90;;;;;;5065488;28;20853;-80
2022/04/04 01:56:21;;;;;;;6.10;4.40;;;-2.30;99.90;;;;;;5077424;28;20493;-80
2022/04/04 01:58:47;;;;;;;5.87;3.67;;;-3.80;99.90;;;;;;5059607;28;20463;-80
2022/04/04 02:01:15;;;;;;;7.67;5.10;;;-3.80;99.90;;;;;;5059712;28;20484;-80
2022/04/04 02:03:42;;;;;;;4.83;3.87;;;-3.80;99.90;;;;;;5059257;28;20405;-80
2022/04/04 02:06:07;;;;;;;7.60;4.57;;;-3.90;99.90;;;;;;5066072;28;20401;-80
2022/04/04 02:08:33;;;;;;;5.10;4.03;;;-3.80;99.90;;;;;;5062363;28;20474;-80
2022/04/04 02:11:00;;;;;;;5.83;3.77;;;-3.90;99.90;;;;;;5057509;28;20182;-80
2022/04/04 02:13:26;;;;;;;8.10;4.00;;;-3.90;99.90;;;;;;5057211;28;20431;-80
2022/04/04 02:15:53;;;;;;;5.30;3.77;;;-3.90;99.90;;;;;;5057387;28;20512;-80
2022/04/04 02:18:19;;;;;;;8.67;4.80;;;-4.00;99.90;;;;;;5058946;28;20536;-80
2022/04/04 02:20:46;;;;;;;7.40;4.73;;;-3.90;99.90;;;;;;5057375;28;20916;-80
2022/04/04 02:23:13;;;;;;;5.93;4.27;;;-4.00;99.90;;;;;;5057834;28;20424;-80
2022/04/04 02:25:39;;;;;;;9.43;4.63;;;-3.90;99.90;;;;;;5059815;28;20806;-80
2022/04/04 02:28:05;;;;;;;5.97;4.23;;;-3.90;99.90;;;;;;5058175;28;20443;-80
2022/04/04 02:30:31;;;;;;;6.20;4.47;;;-3.90;99.90;;;;;;5058787;28;20676;-80
2022/04/04 02:32:56;;;;;;;6.30;4.97;;;-3.90;99.90;;;;;;5059549;28;20450;-80
2022/04/04 02:35:22;;;;;;;8.03;4.27;;;-3.90;99.90;;;;;;5058953;28;20183;-80
2022/04/04 02:37:48;;;;;;;6.37;4.07;;;;;;;;;;5058269;28;20619;-81
2022/04/04 02:40:14;;;;;;;8.13;4.20;;;-4.00;99.90;;;;;;5061032;28;20182;-81
2022/04/04 02:42:40;;;;;;;6.10;4.03;;;-4.00;99.90;;;;;;5061503;28;20557;-81
2022/04/04 02:45:06;;;;;;;6.47;4.07;;;-4.00;99.90;;;;;;5062882;28;20243;-80
2022/04/04 02:47:33;;;;;;;6.13;4.00;;;-4.10;99.90;;;;;;5062016;28;20433;-81
2022/04/04 02:49:58;;;;;;;6.23;3.50;;;-4.10;99.90;;;;;;5061964;28;20434;-81
2022/04/04 02:52:24;;;;;;;11.47;3.93;;;-4.10;99.90;;;;;;5062403;28;20844;-81
2022/04/04 02:54:50;;;;;;;6.50;4.60;;;;;;;;;;5065792;28;20638;-81
2022/04/04 02:57:17;;;;;;;9.33;4.63;;;-4.10;99.90;;;;;;5066367;28;20578;-80
2022/04/04 02:59:46;;;;;;;5.03;4.17;;;-4.10;99.90;;;;;;5066525;28;20476;-81
2022/04/04 03:02:12;;;;;;;6.77;4.00;;;-4.10;99.90;;;;;;5066208;28;20412;-81
2022/04/04 03:04:40;;;;;;;5.83;4.33;;;-4.10;99.90;;;;;;5066228;28;20457;-81
2022/04/04 03:07:08;;;;;;;4.80;3.60;;;-4.10;99.90;;;;;;5066411;28;20431;-81
2022/04/04 03:09:33;;;;;;;6.43;3.80;;;-4.20;99.90;;;;;;5066214;28;20434;-81
2022/04/04 03:12:01;;;;;;;5.30;3.90;;;-4.30;99.90;;;;;;5066905;28;20850;-81
2022/04/04 03:14:27;;;;;;;5.77;3.97;;;-4.30;99.90;;;;;;5067368;28;20324;-81
2022/04/04 03:16:52;;;;;;;7.07;4.73;;;-4.30;99.90;;;;;;5067062;28;20410;-81
2022/04/04 03:19:18;;;;;;;7.07;5.00;;;-4.30;99.90;;;;;;5067461;28;20280;-81
2022/04/04 03:21:44;;;;;;;8.47;4.93;;;-4.30;99.90;;;;;;5068338;28;20176;-80
2022/04/04 03:24:10;;;;;;;6.03;4.27;;;-3.00;99.90;;;;;;5076713;28;20198;-80
2022/04/04 03:26:36;;;;;;;6.53;4.70;;;-4.30;99.90;;;;;;5065182;28;20179;-81
2022/04/04 03:29:02;;;;;;;6.13;4.50;;;-4.30;99.90;;;;;;5065600;28;20881;-81
2022/04/04 03:31:28;;;;;;;11.37;4.17;;;-4.30;99.90;;;;;;5064484;28;20188;-81
2022/04/04 03:33:53;;;;;;;5.70;4.40;;;-4.30;99.90;;;;;;5065667;28;20412;-81
2022/04/04 03:36:20;;;;;;;9.07;4.37;;;-2.10;99.90;;;;;;5064577;28;20202;-80
2022/04/04 03:38:46;;;;;;;6.67;4.50;;;-4.40;99.90;;;;;;5064984;28;20304;-81
2022/04/04 03:41:12;;;;;;;5.77;4.20;;;-4.50;99.90;;;;;;5064164;28;20456;-81
2022/04/04 03:43:38;;;;;;;8.83;4.80;;;-4.50;99.90;;;;;;5063609;28;20538;-81
2022/04/04 03:46:03;;;;;;;5.90;3.73;;;-4.60;99.90;;;;;;5064859;28;20198;-81
2022/04/04 03:48:29;;;;;;;8.67;4.77;;;-4.60;99.90;;;;;;5064687;28;20195;-81
2022/04/04 03:50:55;;;;;;;7.77;4.50;;;-4.60;99.90;;;;;;5064483;28;20178;-81
2022/04/04 03:53:22;;;;;;;7.53;5.07;;;-4.60;99.90;;;;;;5066235;28;20172;-81
2022/04/04 03:55:48;;;;;;;6.73;4.63;;;-4.70;99.90;;;;;;5065286;28;20174;-82
2022/04/04 03:58:14;;;;;;;7.57;5.27;;;-4.70;99.90;;;;;;5067445;28;20930;-82
2022/04/04 04:00:41;;;;;;;8.87;5.07;;;-4.70;99.90;;;;;;5078604;28;20422;-81
2022/04/04 04:03:08;;;;;;;7.67;5.70;;;-4.60;99.90;;;;;;5073006;28;20175;-82
2022/04/04 04:05:34;;;;;;;6.03;4.37;;;-4.70;99.90;;;;;;5063988;28;20475;-82
2022/04/04 04:07:59;;;;;;;8.47;5.73;;;-4.60;99.90;;;;;;5064891;28;20431;-82
2022/04/04 04:10:25;;;;;;;7.20;5.13;;;-2.70;99.90;;;;;;5063684;28;20415;-81
2022/04/04 04:12:52;;;;;;;7.20;5.50;;;-4.70;99.90;;;;;;5063324;28;20186;-81
2022/04/04 04:15:20;;;;;;;8.87;5.30;;;-4.70;99.90;;;;;;5063728;28;20187;-82
2022/04/04 04:17:46;;;;;;;6.70;4.87;;;-4.70;99.90;;;;;;5064453;28;20467;-82
2022/04/04 04:20:23;;;;;;;7.70;5.90;;;-4.60;99.90;;;;;;5063829;28;20477;-81
2022/04/04 04:23:05;;;;;;;7.80;5.07;;;-4.60;99.90;;;;;;5062927;28;20424;-82
2022/04/04 04:25:32;;;;;;;9.43;5.20;;;-4.50;99.90;;;;;;5063141;28;20416;-81
2022/04/04 04:28:00;;;;;;;7.80;5.70;;;-4.50;99.90;;;;;;5064712;28;20450;-81
2022/04/04 04:30:26;;;;;;;8.43;5.20;;;-4.50;99.90;;;;;;5063901;28;20446;-81
2022/04/04 04:32:53;;;;;;;7.57;4.70;;;;;;;;;;5064442;28;20417;-82
2022/04/04 04:35:20;;;;;;;6.70;4.63;;;-4.60;99.90;;;;;;5063678;28;20924;-82
2022/04/04 04:37:46;;;;;;;7.30;4.97;;;;;;;;;;5064316;28;20473;-82
2022/04/04 04:40:12;;;;;;;8.90;5.30;;;-4.60;99.90;;;;;;5064785;28;20895;-82
2022/04/04 04:42:39;;;;;;;6.07;4.50;;;-4.60;99.90;;;;;;5063912;28;20416;-81
2022/04/04 04:45:06;;;;;;;6.93;4.87;;;-4.60;99.90;;;;;;5065097;28;20412;-81
2022/04/04 04:47:32;;;;;;;9.60;5.63;;;-4.80;99.90;;;;;;5063749;28;20416;-81
2022/04/04 04:49:58;;;;;;;7.67;5.33;;;;;;;;;;5063923;28;20413;-82
2022/04/04 04:52:25;;;;;;;7.10;4.53;;;-4.90;99.90;;;;;;5064329;28;20418;-82
2022/04/04 04:54:52;;;;;;;8.60;5.20;;;-4.90;99.90;;;;;;5063770;28;20431;-82
2022/04/04 04:57:19;;;;;;;6.90;5.30;;;-5.00;99.90;;;;;;5064544;28;20867;-83
2022/04/04 04:59:45;;;;;;;5.93;4.70;;;-5.00;99.90;;;;;;5067582;28;20480;-82
2022/04/04 05:02:11;;;;;;;6.77;4.33;;;;;;;;;;5067080;28;20425;-80
2022/04/04 05:04:37;;;;;;;5.60;4.43;;;-4.90;99.90;;;;;;5068645;28;20414;-82
2022/04/04 05:07:05;;;;;;;6.67;4.70;;;-4.90;99.90;;;;;;5067529;28;20415;-82
2022/04/04 05:09:30;;;;;;;8.83;5.17;;;-4.90;99.90;;;;;;5065304;28;20195;-82
2022/04/04 05:11:56;;;;;;;7.63;4.40;;;-4.80;99.90;;;;;;5064681;28;20463;-82
2022/04/04 05:14:22;;;;;;;7.47;4.70;;;;;;;;;;5063101;28;20254;-82
2022/04/04 05:16:48;;;;;;;7.70;4.07;;;-4.80;99.90;;;;;;5063717;28;20180;-82
2022/04/04 05:19:19;;;;;;;6.50;4.30;;;-4.80;99.90;;;;;;5063500;28;20543;-83
2022/04/04 05:21:45;;;;;;;5.50;4.30;;;;;;;;;;5061265;28;20431;-82
2022/04/04 05:24:12;;;;;;;6.23;4.30;;;;;;;;;;5062256;28;20428;-82
2022/04/04 05:26:38;;;;;;;8.07;5.37;;;-4.70;99.90;;;;;;5064476;28;20415;-82
2022/04/04 05:29:04;;;;;;;7.57;4.97;;;;;;;;;;5063681;28;21029;-82
2022/04/04 05:31:31;;;;;;;8.17;4.67;;;-4.60;99.90;;;;;;5064843;28;20930;-82
2022/04/04 05:33:58;;;;;;;14.43;5.40;;;-3.20;99.90;;;;;;5063046;28;20433;-82
2022/04/04 05:36:27;;;;;;;5.07;3.20;;;-4.60;99.90;;;;;;5063243;28;20938;-82
2022/04/04 05:38:53;;;;;;;10.20;4.60;;;;;;;;;;5064638;28;20500;-82
2022/04/04 05:41:19;;;;;;;9.40;4.30;;;-4.60;99.90;;;;;;5065431;28;20407;-82
2022/04/04 05:43:46;;;;;;;8.83;5.37;;;;;;;;;;5063997;28;20930;-81
2022/04/04 05:46:13;;;;;;;8.60;4.47;;;;;;;;;;5063428;28;20448;-84
2022/04/04 05:48:38;;;;;;;7.03;5.03;;;-4.40;99.90;;;;;;5063617;28;20458;-80
2022/04/04 05:51:04;;;;;;;8.03;5.50;;;-4.40;99.90;;;;;;5063121;28;20444;-82
2022/04/04 05:53:30;;;;;;;8.40;4.77;;;;;;;;;;5063917;28;20190;-83
2022/04/04 05:55:56;;;;;;;10.97;5.67;;;-4.30;99.90;;;;;;5063384;28;20487;-83
2022/04/04 05:58:22;;;;;;;10.77;7.43;;;-4.20;99.90;;;;;;5064349;28;20648;-83
2022/04/04 06:00:48;;;;;;;13.73;5.87;;;-4.20;99.90;;;;;;5062972;28;20243;-81
2022/04/04 06:03:14;;;;;;;8.63;5.50;;;-4.00;99.90;;;;;;5063136;28;20212;-81
2022/04/04 06:05:41;;;;;;;7.77;5.53;;;-3.10;99.90;;;;;;5063599;28;20418;-80
2022/04/04 06:08:07;;;;;;;10.03;5.30;;;-3.80;99.90;;;;;;5064894;28;20225;-82
2022/04/04 06:10:33;;;;;;;8.20;5.17;;;;;;;;;;5064622;28;20428;-81
2022/04/04 06:12:59;;;;;;;7.03;4.97;;;-3.70;99.90;;;;;;5063431;28;20421;-83
2022/04/04 06:15:25;;;;;;;15.33;5.90;;;-3.60;99.90;;;;;;5062446;28;20186;-81
2022/04/04 06:17:50;;;;;;;8.97;5.33;;;-3.50;99.90;;;;;;5064157;28;20240;-81
2022/04/04 06:20:16;;;;;;;8.20;5.07;;;-3.40;99.90;;;;;;5063625;28;20188;-81
2022/04/04 06:22:43;;;;;;;9.87;6.57;;;;;;;;;;5062428;28;20182;-81
2022/04/04 06:25:13;;;;;;;9.07;5.90;;;-3.00;99.90;;;;;;5064205;28;20412;-81
2022/04/04 06:27:42;;;;;;;12.03;5.83;;;-3.00;99.90;;;;;;5064854;28;20426;-81
2022/04/04 06:30:09;;;;;;;9.40;6.07;;;-1.20;99.90;;;;;;5063564;28;20440;-81
2022/04/04 06:32:34;;;;;;;8.43;5.87;;;-2.60;99.90;;;;;;5063078;28;20418;-81
2022/04/04 06:35:00;;;;;;;7.10;4.47;;;-2.60;99.90;;;;;;5063835;28;20508;-81
2022/04/04 06:37:26;;;;;;;10.80;5.47;;;-2.30;99.90;;;;;;5063994;28;20216;-81
2022/04/04 06:39:52;;;;;;;10.40;6.37;;;-2.30;99.90;;;;;;5066014;28;20197;-81
2022/04/04 06:42:19;;;;;;;9.97;5.90;;;-1.30;99.90;;;;;;5066112;28;20426;-81
2022/04/04 06:44:45;;;;;;;12.63;6.57;;;-2.20;99.90;;;;;;5065244;28;20547;-81
2022/04/04 06:47:10;;;;;;;8.27;5.00;;;-2.10;99.90;;;;;;5065491;28;20408;-81
2022/04/04 06:49:36;;;;;;;12.43;6.60;;;-2.00;99.90;;;;;;5063711;28;20204;-81
2022/04/04 06:52:02;;;;;;;8.97;5.93;;;-1.90;99.90;;;;;;5063249;28;20198;-81
2022/04/04 06:54:28;;;;;;;6.43;4.80;;;-1.90;99.90;;;;;;5064318;28;20196;-81
2022/04/04 06:56:55;;;;;;;6.27;4.50;;;-0.50;99.90;;;;;;5062090;28;20408;-81
2022/04/04 06:59:21;;;;;;;8.33;5.10;;;-1.80;99.90;;;;;;5063829;28;20204;-81
2022/04/04 07:01:47;;;;;;;8.10;5.20;;;-1.70;99.90;;;;;;5061864;28;20415;-80
2022/04/04 07:04:13;;;;;;;11.00;5.20;;;-0.50;99.90;;;;;;5064293;28;20413;-81
2022/04/04 07:06:39;;;;;;;6.73;4.87;;;0.10;99.90;;;;;;5063820;28;20432;-80
2022/04/04 07:09:05;;;;;;;6.47;5.07;;;-1.30;99.90;;;;;;5062826;28;20458;-80
2022/04/04 07:11:31;;;;;;;6.70;4.27;;;-1.20;99.90;;;;;;5062624;28;20620;-80
2022/04/04 07:13:57;;;;;;;7.27;4.93;;;-1.00;99.90;;;;;;5061796;28;20419;-80
2022/04/04 07:16:25;;;;;;;5.03;4.27;;;-0.80;99.90;;;;;;5063449;28;20695;-80
2022/04/04 07:18:52;;;;;;;10.73;4.83;;;-0.70;99.90;;;;;;5061967;28;20239;-80
2022/04/04 07:21:18;;;;;;;5.40;4.53;;;-0.60;99.90;;;;;;5061849;28;20422;-80
2022/04/04 07:23:43;;;;;;;7.87;5.10;;;-0.40;99.90;;;;;;5061190;28;20499;-80
2022/04/04 07:26:09;;;;;;;6.53;5.03;;;-0.30;99.90;;;;;;5062270;28;20221;-80
2022/04/04 07:28:35;;;;;;;6.90;5.10;;;0.00;99.90;;;;;;5061559;28;20205;-80
2022/04/04 07:31:06;;;;;;;5.07;4.57;;;0.00;99.90;;;;;;5061087;28;20180;-81
2022/04/04 07:33:31;;;;;;;12.60;4.93;;;0.10;99.90;;;;;;5061413;28;20161;-80
2022/04/04 07:35:57;;;;;;;5.10;4.40;;;0.30;99.90;;;;;;5059578;28;20909;-80
2022/04/04 07:38:23;;;;;;;6.10;3.73;;;0.30;99.90;;;;;;5059281;28;20217;-80
2022/04/04 07:40:49;;;;;;;8.63;3.83;;;0.40;99.90;;;;;;5061961;28;20174;-80
2022/04/04 07:43:15;;;;;;;4.93;3.70;;;2.00;99.90;;;;;;5062533;28;20489;-80
2022/04/04 07:45:41;;;;;;;4.87;3.60;;;2.20;99.90;;;;;;5063665;28;20638;-81
2022/04/04 07:48:07;;;;;;;7.07;3.93;;;0.70;99.90;;;;;;5061732;28;20210;-81
2022/04/04 07:50:35;;;;;;;4.13;3.23;;;0.90;99.90;;;;;;5061747;28;20234;-79
2022/04/04 07:53:00;;;;;;;5.10;3.33;;;1.00;99.90;;;;;;5062622;28;20428;-80
2022/04/04 07:55:26;;;;;;;4.27;3.53;;;1.30;99.90;;;;;;5062425;28;20420;-80
2022/04/04 07:57:52;;;;;;;5.07;4.23;;;1.20;99.90;;;;;;5062021;28;20244;-81
2022/04/04 08:00:18;;;;;;;4.80;4.07;;;1.20;99.90;;;;;;5063275;28;20197;-80
2022/04/04 08:02:45;;;;;;;4.23;3.80;;;1.70;99.90;;;;;;5061950;28;20181;-81
2022/04/04 08:05:11;;;;;;;4.97;3.93;;;2.50;99.90;;;;;;5063224;28;20174;-81
2022/04/04 08:07:37;;;;;;;5.87;3.40;;;2.90;99.20;;;;;;5063435;28;20182;-82
2022/04/04 08:10:04;;;;;;;4.07;3.47;;;2.90;99.20;;;;;;5062114;28;20193;-81
2022/04/04 08:12:30;;;;;;;4.40;3.97;;;2.90;97.70;;;;;;5061247;28;20185;-80
2022/04/04 08:14:57;;;;;;;4.20;3.80;;;2.70;95.90;;;;;;5063295;28;20188;-80
2022/04/04 08:17:23;;;;;;;6.97;4.10;;;2.80;97.60;;;;;;5062678;28;20201;-81
2022/04/04 08:19:50;;;;;;;4.33;3.30;;;2.80;98.10;;;;;;5062557;28;20170;-80
2022/04/04 08:22:16;;;;;;;3.87;3.50;;;2.90;94.20;;;;;;5060675;28;20277;-80
2022/04/04 08:24:42;;;;;;;6.40;3.70;;;3.10;93.70;;;;;;5060554;28;20205;-80
2022/04/04 08:27:10;;;;;;;4.73;4.00;;;3.40;93.20;;;;;;5061598;28;20235;-80
2022/04/04 08:29:36;;;;;;;4.90;4.07;;;3.90;92.90;;;;;;5060448;28;20675;-80
2022/04/04 08:32:02;;;;;;;5.13;4.20;;;3.70;93.90;;;;;;5061860;28;20281;-80
2022/04/04 08:34:28;;;;;;;4.30;3.80;;;2.70;93.40;;;;;;5060434;28;20223;-80
2022/04/04 08:36:54;;;;;;;5.73;4.07;;;2.60;93.60;;;;;;5060288;28;20624;-80
2022/04/04 08:39:20;;;;;;;6.57;5.30;;;3.00;96.10;;;;;;5061464;28;20214;-80
2022/04/04 08:41:45;;;;;;;4.20;3.80;;;3.30;95.00;;;;;;5059940;28;20296;-80
2022/04/04 08:44:14;;;;;;;7.90;5.10;;;3.20;94.30;;;;;;5059482;28;20190;-79
2022/04/04 08:46:41;;;;;;;7.70;5.03;;;3.10;95.10;;;;;;5060278;28;20267;-80
2022/04/04 08:49:07;;;;;;;4.77;4.30;;;3.10;94.70;;;;;;5061029;28;20200;-80
2022/04/04 08:51:33;;;;;;;6.40;4.80;;;3.10;95.00;;;;;;5059018;28;20233;-80
2022/04/04 08:53:59;;;;;;;6.87;4.50;;;2.90;95.40;;;;;;5060889;28;20633;-79
2022/04/04 08:56:26;;;;;;;5.60;4.53;;;3.00;95.90;;;;;;5061122;28;20186;-79
2022/04/04 08:58:52;;;;;;;6.20;5.53;;;2.90;97.10;;;;;;5059440;28;20216;-79
2022/04/04 09:01:27;;;;;;;10.03;8.87;;;3.10;96.30;;;;;;5059820;28;20203;-80
2022/04/04 09:04:01;;;;;;;5.70;5.10;;;3.00;96.00;;;;;;5058902;28;20176;-80
2022/04/04 09:06:28;;;;;;;4.30;3.70;;;3.10;95.30;;;;;;5061404;28;20177;-81
2022/04/04 09:08:55;;;;;;;6.10;5.37;;;2.60;94.60;;;;;;5059374;28;20205;-81
2022/04/04 09:11:21;;;;;;;6.00;5.33;;;2.40;96.00;;;;;;5060388;28;20178;-81
2022/04/04 09:14:06;;;;;;;4.43;4.03;;;2.80;96.80;;;;;;5060375;28;20181;-81
2022/04/04 09:16:32;;;;;;;7.50;4.43;;;3.20;95.50;;;;;;5059115;28;20639;-81
2022/04/04 09:18:58;;;;;;;4.87;4.37;;;3.40;95.30;;;;;;5060355;28;20213;-81
2022/04/04 09:21:24;;;;;;;5.40;4.60;;;3.80;96.20;;;;;;5061073;28;20182;-81
2022/04/04 09:23:58;;;;;;;9.33;6.07;;;3.50;94.50;;;;;;5057706;28;20635;-82
2022/04/04 09:26:40;;;;;;;8.13;4.77;;;3.80;94.90;;;;;;5058310;28;20174;-82
2022/04/04 09:29:16;;;;;;;7.50;3.90;;;4.60;93.80;;;;;;5058757;28;20362;-81
2022/04/04 09:32:05;;;;;;;7.30;4.03;;;5.10;93.10;;;;;;5060037;28;20158;-82
2022/04/04 09:35:08;;;;;;;4.80;4.03;;;5.50;91.10;;;;;;5059891;28;20156;-81
2022/04/04 09:37:35;;;;;;;6.50;4.63;;;5.70;91.50;;;;;;5060671;28;20212;-82
2022/04/04 09:40:03;;;;;;;4.90;3.93;;;5.30;90.20;;;;;;5060289;28;20173;-82
2022/04/04 09:42:31;;;;;;;4.90;4.40;;;5.40;92.70;;;;;;5060286;28;20166;-82
2022/04/04 09:44:58;;;;;;;5.90;4.57;;;5.00;89.90;;;;;;5060841;28;20181;-82
2022/04/04 09:48:07;;;;;;;5.20;4.23;;;5.30;92.30;;;;;;5061083;28;20177;-81
2022/04/04 09:50:46;;;;;;;6.63;4.50;;;5.50;92.40;;;;;;5056712;28;20717;-82
2022/04/04 09:53:16;;;;;;;5.77;4.03;;;5.50;90.20;;;;;;5059378;28;20212;-82
2022/04/04 09:55:55;;;;;;;4.80;4.23;;;5.70;90.90;;;;;;5058945;28;20175;-82
2022/04/04 09:58:26;;;;;;;9.40;4.43;;;6.00;90.90;;;;;;5060009;28;20211;-82
2022/04/04 10:00:54;;;;;;;5.40;4.90;;;6.30;92.00;;;;;;5057837;28;20166;-82
2022/04/04 10:03:21;;;;;;;5.40;4.90;;;6.00;90.90;;;;;;5058141;28;20288;-82
2022/04/04 10:05:53;;;;;;;6.67;5.87;;;5.40;90.40;;;;;;5057795;28;20202;-82
2022/04/04 10:08:22;;;;;;;6.50;5.17;;;5.10;92.50;;;;;;5058158;28;20202;-83
2022/04/04 10:10:49;;;;;;;6.27;5.30;;;5.20;95.70;;;;;;5057789;28;20174;-83
2022/04/04 10:13:16;;;;;;;8.63;5.73;;;5.90;95.40;;;;;;5059566;28;20177;-81
2022/04/04 10:15:43;;;;;;;7.23;5.70;;;6.20;94.20;;;;;;5057922;28;20181;-82
2022/04/04 10:18:09;;;;;;;6.93;6.20;;;6.30;94.50;;;;;;5058528;28;20205;-79
2022/04/04 10:20:36;;;;;;;6.77;5.20;;;6.40;95.00;;;;;;5056459;28;20184;-81
2022/04/04 10:23:04;;;;;;;6.00;5.07;;;6.90;93.80;;;;;;5056807;28;20206;-82
2022/04/04 10:25:32;;;;;;;5.97;5.37;;;6.40;92.80;;;;;;5056472;28;20178;-82
2022/04/04 10:28:01;;;;;;;7.40;6.17;;;6.00;95.30;;;;;;5058557;28;20801;-82
2022/04/04 10:30:40;;;;;;;6.77;6.07;;;5.50;95.00;;;;;;5057053;28;20178;-82
2022/04/04 10:33:19;;;;;;;13.43;8.10;;;5.00;96.30;;;;;;5058385;28;20693;-83
2022/04/04 10:35:59;;;;;;;10.70;8.30;;;5.00;96.70;;;;;;5057518;28;20160;-83
2022/04/04 10:38:30;;;;;;;8.33;5.90;;;5.20;98.00;;;;;;5055303;28;20786;-82
2022/04/04 10:40:57;;;;;;;7.60;6.53;;;5.40;96.30;;;;;;5055854;28;20180;-83
2022/04/04 10:43:23;;;;;;;10.17;8.23;;;4.80;98.60;;;;;;5056013;28;20185;-83
2022/04/04 10:45:54;;;;;;;6.83;6.13;;;5.00;98.70;;;;;;5055952;28;20190;-82
2022/04/04 10:48:20;;;;;;;11.83;9.13;;;5.00;98.90;;;;;;5057932;28;20212;-81
2022/04/04 10:50:47;;;;;;;11.17;7.73;;;4.90;98.70;;;;;;5057842;28;20169;-83
2022/04/04 10:53:12;;;;;;;6.70;6.00;;;5.10;98.40;;;;;;5057305;28;20178;-81
2022/04/04 10:55:43;;;;;;;8.20;6.73;;;5.60;98.30;;;;;;5056433;28;20184;-81
2022/04/04 10:58:19;;;;;;;9.47;7.10;;;6.10;98.80;;;;;;5057283;28;20212;-81
2022/04/04 11:01:15;;;;;;;8.27;6.30;;;6.60;97.30;;;;;;5056849;28;20161;-82
2022/04/04 11:03:53;;;;;;;7.63;6.73;;;6.60;97.00;;;;;;5054936;28;20643;-81
2022/04/04 11:09:26;;;;;;;8.43;6.53;;;6.00;96.70;;;;;;5057418;28;20236;-81
2022/04/04 11:12:08;;;;;;;8.83;6.93;;;6.00;99.10;;;;;;5057798;28;20170;-81
2022/04/04 11:14:41;;;;;;;14.60;10.27;;;6.30;97.30;;;;;;5058687;28;20161;-80
2022/04/04 11:20:21;;;;;;;7.53;6.63;;;6.80;98.30;;;;;;5061467;28;20149;-81
2022/04/04 11:22:51;;;;;;;26.27;14.30;;;5.50;98.60;;;;;;5059443;28;20166;-80
2022/04/04 11:25:22;;;;;;;51.07;22.90;;;5.20;99.90;;;;;;5060976;28;20149;-81
2022/04/04 11:27:49;;;;;;;24.23;11.60;;;5.10;99.90;;;;;;5061401;28;20701;-80
2022/04/04 11:30:20;;;;;;;30.30;14.43;;;5.90;99.90;;;;;;5061175;28;20197;-80
2022/04/04 11:32:49;;;;;;;8.80;7.77;;;5.90;99.50;;;;;;5059270;28;20193;-80
2022/04/04 11:35:23;;;;;;;7.93;6.47;;;6.00;99.90;;;;;;5058787;28;20166;-81
2022/04/04 11:37:51;;;;;;;7.30;5.97;;;6.50;98.70;;;;;;5058842;28;20207;-78
2022/04/04 11:40:23;;;;;;;7.50;6.70;;;6.90;98.50;;;;;;5059674;28;20229;-79
2022/04/04 11:42:51;;;;;;;9.30;6.90;;;7.10;97.40;;;;;;5057230;28;20253;-78
2022/04/04 11:45:22;;;;;;;7.87;7.07;;;7.50;97.70;;;;;;5059222;28;20174;-78
2022/04/04 11:48:03;;;;;;;7.10;6.40;;;7.30;96.60;;;;;;5058372;28;20200;-78
2022/04/04 11:50:34;;;;;;;6.40;5.47;;;7.60;99.00;;;;;;5057918;28;20168;-78
2022/04/04 11:53:11;;;;;;;7.53;6.60;;;7.70;96.00;;;;;;5056853;28;20666;-79
2022/04/04 11:55:41;;;;;;;7.90;6.00;;;7.50;96.20;;;;;;5056967;28;20193;-79
2022/04/04 11:58:12;;;;;;;6.20;5.60;;;7.80;96.90;;;;;;5057007;28;20217;-79
2022/04/04 12:00:45;;;;;;;7.60;5.90;;;7.60;95.10;;;;;;5059582;28;20169;-79
2022/04/04 12:03:14;;;;;;;9.30;7.20;;;7.50;94.80;;;;;;5077213;28;20180;-79
2022/04/04 12:05:41;;;;;;;14.67;9.83;;;7.60;96.30;;;;;;5078850;28;20173;-79
2022/04/04 12:08:11;;;;;;;9.83;7.97;;;8.30;94.70;;;;;;5066029;28;20197;-79
2022/04/04 12:10:38;;;;;;;7.83;7.00;;;8.00;94.50;;;;;;5077100;28;20198;-78
2022/04/04 12:13:13;;;;;;;7.27;6.57;;;8.10;94.30;;;;;;5078632;28;20207;-79
2022/04/04 12:15:44;;;;;;;8.37;5.90;;;8.60;95.60;;;;;;5077921;28;20168;-78
2022/04/04 12:18:12;;;;;;;6.90;5.57;;;8.80;93.30;;;;;;5076791;28;20259;-79
2022/04/04 12:20:42;;;;;;;8.63;6.90;;;8.50;92.80;;;;;;5076137;28;20184;-79
2022/04/04 12:26:07;;;;;;;9.30;6.90;;;8.50;93.90;;;;;;5077379;28;20164;-79
2022/04/04 12:28:35;;;;;;;7.53;6.80;;;9.10;95.10;;;;;;5076103;28;20704;-79
2022/04/04 12:31:19;;;;;;;6.90;6.20;;;9.70;92.60;;;;;;5077789;28;20180;-80
2022/04/04 12:34:04;;;;;;;8.20;7.13;;;9.10;93.20;;;;;;5076461;28;20172;-80
2022/04/04 12:36:41;;;;;;;7.73;6.93;;;9.40;94.20;;;;;;5077157;28;20218;-79
2022/04/04 12:39:18;;;;;;;7.60;6.80;;;9.10;93.30;;;;;;5076955;28;20212;-79
2022/04/04 12:41:50;;;;;;;8.00;6.73;;;9.30;92.90;;;;;;5076042;28;20176;-79
2022/04/04 12:44:34;;;;;;;8.73;6.70;;;9.20;92.80;;;;;;5075991;28;20218;-79
2022/04/04 12:47:12;;;;;;;8.73;6.20;;;8.90;91.80;;;;;;5076671;28;20165;-80
2022/04/04 12:49:39;;;;;;;7.47;6.40;;;9.00;92.90;;;;;;5075725;28;20280;-79
2022/04/04 12:52:08;;;;;;;7.30;6.50;;;8.50;92.40;;;;;;5077222;28;20162;-79
2022/04/04 12:54:36;;;;;;;7.77;6.50;;;9.10;92.60;;;;;;5076870;28;20249;-79
2022/04/04 12:57:05;;;;;;;8.20;7.37;;;9.00;91.40;;;;;;5075905;28;20177;-80
2022/04/04 12:59:56;;;;;;;9.37;7.43;;;9.30;91.40;;;;;;5067976;28;20288;-80
2022/04/04 13:02:33;;;;;;;6.90;6.20;;;10.20;92.00;;;;;;5056586;28;20162;-79
2022/04/04 13:05:16;;;;;;;7.57;6.77;;;10.30;88.70;;;;;;5055798;28;20170;-79
2022/04/04 13:07:49;;;;;;;8.47;7.57;;;10.00;86.60;;;;;;5056643;28;20257;-80
2022/04/04 13:10:15;;;;;;;8.63;7.23;;;9.80;89.80;;;;;;5056791;28;20212;-79